createdAt,value
2019-02-24T00:00:42.805Z,0.45
2019-02-24T00:01:52.669Z,0.49
2019-02-24T00:03:02.780Z,0.43
2019-02-24T00:04:12.898Z,0.33
2019-02-24T00:05:22.994Z,0.38
2019-02-24T00:06:33.121Z,0.28
2019-02-24T00:07:43.436Z,0.25
2019-02-24T00:08:53.572Z,0.27
2019-02-24T00:10:03.694Z,0.24
2019-02-24T00:11:14.753Z,0.14
2019-02-24T00:12:24.898Z,0.11
2019-02-24T00:13:35.026Z,0.16
2019-02-24T00:14:45.154Z,0.06
2019-02-24T00:15:55.297Z,0.08
2019-02-24T00:17:05.438Z,0.05
2019-02-24T00:18:15.559Z,0.09
2019-02-24T00:19:25.703Z,0.14
2019-02-24T00:20:35.805Z,0.16
2019-02-24T00:21:45.926Z,0.21
2019-02-24T00:22:55.801Z,0.16
2019-02-24T00:24:05.911Z,0.24
2019-02-24T00:25:16.024Z,0.27
2019-02-24T00:26:26.123Z,0.3
2019-02-24T00:27:36.234Z,0.33
2019-02-24T00:28:46.402Z,0.5
2019-02-24T00:29:56.512Z,0.45
2019-02-24T00:31:06.626Z,0.35
2019-02-24T00:32:16.781Z,0.39
2019-02-24T00:33:26.889Z,0.3
2019-02-24T00:34:37.020Z,0.28
2019-02-24T00:35:47.134Z,0.3
2019-02-24T00:36:57.261Z,0.35
2019-02-24T00:38:07.414Z,0.17
2019-02-24T00:39:17.514Z,0.17
2019-02-24T00:40:27.656Z,0.25
2019-02-24T00:41:37.783Z,0.27
2019-02-24T00:42:47.908Z,0.31
2019-02-24T00:43:58.039Z,0.33
2019-02-24T00:45:08.192Z,0.39
2019-02-24T00:46:18.327Z,0.42
2019-02-24T00:47:28.495Z,0.45
2019-02-24T00:48:38.614Z,0.49
2019-02-24T00:49:48.772Z,0.54
2019-02-24T00:50:58.897Z,0.54
2019-02-24T00:52:09.026Z,0.54
2019-02-24T00:53:19.144Z,0.53
2019-02-24T00:54:29.278Z,0.56
2019-02-24T00:55:39.390Z,0.61
2019-02-24T00:56:49.514Z,0.61
2019-02-24T00:57:59.673Z,0.58
2019-02-24T00:59:09.787Z,0.66
2019-02-24T01:00:19.908Z,0.71
2019-02-24T01:01:30.045Z,0.63
2019-02-24T01:02:40.170Z,0.79
2019-02-24T01:03:50.319Z,0.78
2019-02-24T01:05:00.436Z,0.82
2019-02-24T01:06:10.545Z,0.78
2019-02-24T01:07:20.650Z,0.75
2019-02-24T01:08:30.769Z,0.71
2019-02-24T01:09:40.899Z,0.71
2019-02-24T01:10:50.514Z,0.67
2019-02-24T01:12:00.679Z,0.71
2019-02-24T01:13:10.788Z,0.76
2019-02-24T01:14:20.905Z,0.71
2019-02-24T01:15:31.033Z,0.76
2019-02-24T01:16:41.147Z,0.74
2019-02-24T01:17:51.019Z,0.58
2019-02-24T01:19:00.892Z,0.58
2019-02-24T01:20:10.993Z,0.64
2019-02-24T01:21:21.102Z,0.57
2019-02-24T01:22:31.236Z,0.61
2019-02-24T01:23:41.358Z,0.64
2019-02-24T01:24:51.463Z,0.6
2019-02-24T01:26:01.570Z,0.6
2019-02-24T01:27:11.719Z,0.6
2019-02-24T01:28:29.897Z,0.67
2019-02-24T01:29:40.012Z,0.6
2019-02-24T01:30:50.187Z,0.58
2019-02-24T01:32:00.307Z,0.56
2019-02-24T01:33:10.422Z,0.56
2019-02-24T01:34:20.553Z,0.54
2019-02-24T01:35:30.674Z,0.56
2019-02-24T01:36:40.798Z,0.54
2019-02-24T01:37:51.012Z,0.54
2019-02-24T01:39:01.175Z,0.58
2019-02-24T01:40:11.435Z,0.58
2019-02-24T01:41:21.556Z,0.5
2019-02-24T01:42:31.659Z,0.53
2019-02-24T01:43:41.770Z,0.5
2019-02-24T01:44:51.879Z,0.4
2019-02-24T01:46:01.981Z,0.4
2019-02-24T01:47:12.086Z,0.5
2019-02-24T01:48:23.621Z,0.48
2019-02-24T01:49:33.498Z,0.49
2019-02-24T01:50:43.659Z,0.38
2019-02-24T01:51:53.785Z,0.43
2019-02-24T01:53:03.890Z,0.39
2019-02-24T01:54:14.009Z,0.49
2019-02-24T01:55:24.133Z,0.35
2019-02-24T01:56:34.228Z,0.33
2019-02-24T01:57:44.349Z,0.28
2019-02-24T01:58:54.196Z,0.27
2019-02-24T02:00:04.085Z,0.28
2019-02-24T02:01:14.207Z,0.27
2019-02-24T02:02:24.322Z,0.21
2019-02-24T02:03:34.455Z,0.2
2019-02-24T02:04:44.553Z,0.16
2019-02-24T02:05:54.882Z,0.14
2019-02-24T02:07:04.995Z,0.14
2019-02-24T02:08:14.887Z,0.09
2019-02-24T02:09:24.732Z,0.09
2019-02-24T02:10:34.839Z,0.03
2019-02-24T02:11:44.953Z,0.05
2019-02-24T02:12:55.052Z,0.06
2019-02-24T02:14:05.238Z,0.09
2019-02-24T02:15:15.342Z,0.09
2019-02-24T02:16:25.201Z,0.12
2019-02-24T02:17:35.310Z,0.14
2019-02-24T02:18:45.424Z,0.17
2019-02-24T02:19:55.513Z,0.22
2019-02-24T02:21:05.663Z,0.16
2019-02-24T02:22:15.532Z,0.22
2019-02-24T02:23:25.409Z,0.16
2019-02-24T02:24:35.513Z,0.21
2019-02-24T02:25:45.624Z,0.22
2019-02-24T02:26:55.721Z,0.24
2019-02-24T02:28:05.815Z,0.3
2019-02-24T02:29:15.923Z,0.31
2019-02-24T02:30:26.043Z,0.3
2019-02-24T02:31:36.370Z,0.3
2019-02-24T02:32:46.543Z,0.3
2019-02-24T02:33:56.662Z,0.28
2019-02-24T02:35:06.785Z,0.3
2019-02-24T02:36:16.895Z,0.28
2019-02-24T02:37:27.030Z,0.33
2019-02-24T02:38:37.166Z,0.3
2019-02-24T02:39:47.277Z,0.3
2019-02-24T02:40:57.384Z,0.49
2019-02-24T02:42:07.149Z,0.36
2019-02-24T02:43:17.246Z,0.43
2019-02-24T02:44:27.353Z,0.46
2019-02-24T02:45:37.457Z,0.48
2019-02-24T02:46:47.582Z,0.43
2019-02-24T02:47:57.705Z,0.49
2019-02-24T02:49:09.453Z,0.42
2019-02-24T02:50:19.580Z,0.3
2019-02-24T02:51:29.716Z,0.25
2019-02-24T02:52:39.856Z,0.06
2019-02-24T02:53:49.971Z,0.09
2019-02-24T02:55:00.059Z,0.02
2019-02-24T02:56:10.213Z,-0.13
2019-02-24T02:57:20.962Z,-0.12
2019-02-24T02:58:31.074Z,-0.13
2019-02-24T02:59:41.173Z,-0.04
2019-02-24T03:00:50.789Z,-0.22
2019-02-24T03:02:00.929Z,-0.34
2019-02-24T03:03:11.048Z,-0.27
2019-02-24T03:04:21.129Z,-0.23
2019-02-24T03:05:30.962Z,-0.22
2019-02-24T03:06:41.079Z,-0.23
2019-02-24T03:07:51.187Z,-0.19
2019-02-24T03:09:01.303Z,-0.2
2019-02-24T03:10:11.168Z,-0.34
2019-02-24T03:11:21.280Z,-0.34
2019-02-24T03:12:31.403Z,-0.34
2019-02-24T03:13:42.505Z,-0.37
2019-02-24T03:14:52.614Z,-0.31
2019-02-24T03:16:02.718Z,-0.4
2019-02-24T03:17:12.817Z,-0.37
2019-02-24T03:18:22.915Z,-0.46
2019-02-24T03:19:33.043Z,-0.43
2019-02-24T03:20:43.158Z,-0.45
2019-02-24T03:21:53.268Z,-0.46
2019-02-24T03:23:03.369Z,-0.46
2019-02-24T03:24:13.507Z,-0.48
2019-02-24T03:25:23.252Z,-0.46
2019-02-24T03:26:33.361Z,-0.31
2019-02-24T03:27:43.485Z,-0.45
2019-02-24T03:28:53.602Z,-0.55
2019-02-24T03:30:11.909Z,-0.59
2019-02-24T03:31:22.041Z,-0.7
2019-02-24T03:32:32.174Z,-0.77
2019-02-24T03:33:44.717Z,-0.81
2019-02-24T03:34:55.292Z,-0.87
2019-02-24T03:36:05.607Z,-0.85
2019-02-24T03:37:15.729Z,-0.88
2019-02-24T03:38:25.846Z,-0.87
2019-02-24T03:39:36.041Z,-0.91
2019-02-24T03:40:46.160Z,-0.88
2019-02-24T03:41:56.245Z,-0.85
2019-02-24T03:43:06.350Z,-0.87
2019-02-24T03:44:16.446Z,-0.74
2019-02-24T03:45:26.548Z,-0.74
2019-02-24T03:46:36.724Z,-0.6
2019-02-24T03:47:46.841Z,-0.59
2019-02-24T03:48:56.948Z,-0.58
2019-02-24T03:50:07.052Z,-0.53
2019-02-24T03:51:17.158Z,-0.53
2019-02-24T03:52:27.278Z,-0.43
2019-02-24T03:53:37.458Z,-0.28
2019-02-24T03:54:47.579Z,-0.37
2019-02-24T03:56:00.027Z,-0.31
2019-02-24T03:57:10.190Z,-0.27
2019-02-24T03:58:20.316Z,-0.22
2019-02-24T03:59:30.431Z,-0.1
2019-02-24T04:00:40.542Z,-0.16
2019-02-24T04:01:50.724Z,-0.12
2019-02-24T04:03:00.888Z,-0.04
2019-02-24T04:04:10.997Z,-0.09
2019-02-24T04:05:21.103Z,-0.04
2019-02-24T04:06:31.264Z,-0.04
2019-02-24T04:07:41.390Z,-0.04
2019-02-24T04:08:51.505Z,0.01
2019-02-24T04:10:01.618Z,0.01
2019-02-24T04:11:11.722Z,-0.06
2019-02-24T04:12:21.829Z,-0.01
2019-02-24T04:13:31.940Z,-0.02
2019-02-24T04:14:42.049Z,-0.06
2019-02-24T04:15:52.153Z,-0.17
2019-02-24T04:17:02.256Z,-0.19
2019-02-24T04:18:12.370Z,-0.27
2019-02-24T04:19:22.514Z,-0.38
2019-02-24T04:20:32.666Z,-0.45
2019-02-24T04:21:42.725Z,-0.43
2019-02-24T04:22:52.833Z,-0.45
2019-02-24T04:24:02.928Z,-0.49
2019-02-24T04:25:13.072Z,-0.6
2019-02-24T04:26:23.209Z,-0.63
2019-02-24T04:27:33.313Z,-0.66
2019-02-24T04:28:43.412Z,-0.64
2019-02-24T04:29:53.516Z,-0.63
2019-02-24T04:31:03.626Z,-0.59
2019-02-24T04:32:13.740Z,-0.55
2019-02-24T04:33:23.848Z,-0.48
2019-02-24T04:34:33.965Z,-0.3
2019-02-24T04:35:44.068Z,-0.4
2019-02-24T04:36:54.214Z,-0.35
2019-02-24T04:38:04.316Z,-0.34
2019-02-24T04:39:14.412Z,-0.31
2019-02-24T04:40:23.990Z,-0.27
2019-02-24T04:41:34.135Z,-0.33
2019-02-24T04:42:44.233Z,-0.25
2019-02-24T04:43:54.090Z,-0.2
2019-02-24T04:45:04.205Z,-0.23
2019-02-24T04:46:14.307Z,-0.2
2019-02-24T04:47:24.415Z,-0.23
2019-02-24T04:48:34.283Z,-0.23
2019-02-24T04:49:44.388Z,-0.31
2019-02-24T04:50:54.493Z,-0.23
2019-02-24T04:52:04.607Z,-0.3
2019-02-24T04:53:14.717Z,-0.28
2019-02-24T04:54:24.827Z,-0.31
2019-02-24T04:55:34.972Z,-0.31
2019-02-24T04:56:45.088Z,-0.25
2019-02-24T04:57:55.209Z,-0.23
2019-02-24T04:59:05.304Z,-0.23
2019-02-24T05:00:16.512Z,-0.25
2019-02-24T05:01:26.615Z,-0.15
2019-02-24T05:02:36.500Z,-0.16
2019-02-24T05:03:46.597Z,-0.27
2019-02-24T05:04:56.697Z,-0.35
2019-02-24T05:06:06.808Z,-0.27
2019-02-24T05:07:16.915Z,-0.34
2019-02-24T05:08:27.026Z,-0.33
2019-02-24T05:09:36.880Z,-0.31
2019-02-24T05:10:46.714Z,-0.41
2019-02-24T05:11:56.824Z,-0.55
2019-02-24T05:13:06.926Z,-0.55
2019-02-24T05:14:17.019Z,-0.64
2019-02-24T05:15:27.121Z,-0.58
2019-02-24T05:16:37.233Z,-0.56
2019-02-24T05:17:47.346Z,-0.46
2019-02-24T05:18:57.440Z,-0.45
2019-02-24T05:20:07.291Z,-0.35
2019-02-24T05:21:17.397Z,-0.35
2019-02-24T05:22:27.501Z,-0.34
2019-02-24T05:23:37.605Z,-0.3
2019-02-24T05:24:48.117Z,-0.35
2019-02-24T05:25:58.285Z,-0.25
2019-02-24T05:27:08.392Z,-0.22
2019-02-24T05:28:18.137Z,-0.38
2019-02-24T05:29:28.290Z,-0.3
2019-02-24T05:30:38.400Z,-0.33
2019-02-24T05:31:48.512Z,-0.48
2019-02-24T05:32:58.630Z,-0.48
2019-02-24T05:34:08.475Z,-0.46
2019-02-24T05:35:18.583Z,-0.34
2019-02-24T05:36:28.679Z,-0.31
2019-02-24T05:37:39.202Z,-0.35
2019-02-24T05:38:49.319Z,-0.31
2019-02-24T05:39:59.437Z,-0.2
2019-02-24T05:41:09.589Z,-0.25
2019-02-24T05:42:19.699Z,-0.25
2019-02-24T05:43:29.545Z,-0.22
2019-02-24T05:44:39.646Z,-0.19
2019-02-24T05:45:49.773Z,-0.23
2019-02-24T05:46:59.877Z,-0.23
2019-02-24T05:48:09.987Z,-0.2
2019-02-24T05:49:20.114Z,-0.16
2019-02-24T05:50:30.247Z,-0.15
2019-02-24T05:51:40.524Z,-0.09
2019-02-24T05:52:50.622Z,-0.15
2019-02-24T05:54:00.731Z,-0.17
2019-02-24T05:55:10.859Z,-0.12
2019-02-24T05:56:21.015Z,-0.13
2019-02-24T05:57:31.123Z,-0.22
2019-02-24T05:58:41.229Z,-0.15
2019-02-24T06:00:00.023Z,-0.1
2019-02-24T06:01:10.133Z,-0.12
2019-02-24T06:02:20.223Z,-0.1
2019-02-24T06:03:30.441Z,-0.02
2019-02-24T06:04:40.564Z,0.01
2019-02-24T06:05:50.660Z,-0.01
2019-02-24T06:07:00.790Z,0.01
2019-02-24T06:08:10.898Z,-0.01
2019-02-24T06:09:21.033Z,-0.15
2019-02-24T06:10:31.144Z,-0.12
2019-02-24T06:11:41.257Z,-0.09
2019-02-24T06:12:51.359Z,-0.09
2019-02-24T06:14:01.466Z,-0.22
2019-02-24T06:15:11.630Z,-0.17
2019-02-24T06:16:21.744Z,-0.16
2019-02-24T06:17:31.836Z,-0.12
2019-02-24T06:18:41.944Z,-0.17
2019-02-24T06:19:52.062Z,-0.22
2019-02-24T06:21:02.155Z,-0.22
2019-02-24T06:22:12.276Z,-0.22
2019-02-24T06:23:22.398Z,-0.37
2019-02-24T06:24:32.289Z,-0.35
2019-02-24T06:25:42.414Z,-0.43
2019-02-24T06:26:52.531Z,-0.48
2019-02-24T06:28:02.653Z,-0.53
2019-02-24T06:29:12.776Z,-0.48
2019-02-24T06:30:22.902Z,-0.55
2019-02-24T06:31:33.050Z,-0.53
2019-02-24T06:32:42.907Z,-0.48
2019-02-24T06:33:53.078Z,-0.41
2019-02-24T06:35:03.218Z,-0.31
2019-02-24T06:36:13.315Z,-0.35
2019-02-24T06:37:23.465Z,-0.31
2019-02-24T06:38:33.570Z,-0.28
2019-02-24T06:39:43.683Z,-0.38
2019-02-24T06:40:53.798Z,-0.31
2019-02-24T06:42:05.395Z,-0.22
2019-02-24T06:43:15.246Z,-0.23
2019-02-24T06:44:25.403Z,-0.19
2019-02-24T06:45:35.546Z,-0.19
2019-02-24T06:46:45.648Z,-0.09
2019-02-24T06:47:55.770Z,-0.12
2019-02-24T06:49:05.900Z,-0.04
2019-02-24T06:50:16.022Z,0.01
2019-02-24T06:51:25.886Z,0.01
2019-02-24T06:52:36.030Z,0.12
2019-02-24T06:53:46.165Z,0.12
2019-02-24T06:54:56.346Z,0.28
2019-02-24T06:56:06.474Z,0.31
2019-02-24T06:57:16.585Z,0.31
2019-02-24T06:58:26.708Z,0.31
2019-02-24T06:59:36.837Z,0.33
2019-02-24T07:00:46.957Z,0.36
2019-02-24T07:01:57.065Z,0.38
2019-02-24T07:03:07.244Z,0.25
2019-02-24T07:04:17.373Z,0.25
2019-02-24T07:05:27.495Z,0.25
2019-02-24T07:06:37.658Z,0.3
2019-02-24T07:07:47.522Z,0.45
2019-02-24T07:08:57.630Z,0.35
2019-02-24T07:10:07.763Z,0.48
2019-02-24T07:11:17.903Z,0.46
2019-02-24T07:12:28.008Z,0.5
2019-02-24T07:13:38.114Z,0.58
2019-02-24T07:14:48.246Z,0.56
2019-02-24T07:15:58.371Z,0.63
2019-02-24T07:17:08.514Z,0.76
2019-02-24T07:18:18.650Z,0.84
2019-02-24T07:19:28.782Z,0.88
2019-02-24T07:20:40.722Z,1.02
2019-02-24T07:21:50.866Z,1.11
2019-02-24T07:23:01.003Z,1.28
2019-02-24T07:24:10.901Z,1.35
2019-02-24T07:25:21.069Z,1.55
2019-02-24T07:26:31.206Z,1.72
2019-02-24T07:27:41.312Z,1.97
2019-02-24T07:28:51.255Z,2.55
2019-02-24T07:30:01.394Z,3.4
2019-02-24T07:31:11.521Z,4.19
2019-02-24T07:32:21.652Z,5.1
2019-02-24T07:33:31.761Z,5.91
2019-02-24T07:34:41.875Z,6.54
2019-02-24T07:35:52.027Z,7
2019-02-24T07:37:02.171Z,7.58
2019-02-24T07:38:20.763Z,7.97
2019-02-24T07:39:30.908Z,8.42
2019-02-24T07:40:41.030Z,8.74
2019-02-24T07:41:51.134Z,9.05
2019-02-24T07:43:01.258Z,9.56
2019-02-24T07:44:11.406Z,9.98
2019-02-24T07:45:21.251Z,10.37
2019-02-24T07:46:31.368Z,10.55
2019-02-24T07:47:41.485Z,10.85
2019-02-24T07:48:51.629Z,11.13
2019-02-24T07:50:01.757Z,11.45
2019-02-24T07:51:12.479Z,11.91
2019-02-24T07:52:22.690Z,12.32
2019-02-24T07:53:32.802Z,12.53
2019-02-24T07:54:43.026Z,12.62
2019-02-24T07:55:53.141Z,12.82
2019-02-24T07:57:03.249Z,12.81
2019-02-24T07:58:13.374Z,12.77
2019-02-24T07:59:23.491Z,12.71
2019-02-24T08:00:37.289Z,12.63
2019-02-24T08:01:47.668Z,12.7
2019-02-24T08:02:57.808Z,12.7
2019-02-24T08:04:08.001Z,12.78
2019-02-24T08:05:18.160Z,12.85
2019-02-24T08:06:28.278Z,13
2019-02-24T08:07:38.416Z,13.08
2019-02-24T08:08:48.549Z,13.06
2019-02-24T08:09:58.744Z,13.08
2019-02-24T08:11:08.892Z,13.12
2019-02-24T08:12:19.056Z,13.33
2019-02-24T08:13:29.183Z,13.52
2019-02-24T08:14:39.333Z,13.7
2019-02-24T08:15:49.480Z,13.88
2019-02-24T08:16:59.636Z,14
2019-02-24T08:18:09.918Z,14.11
2019-02-24T08:19:20.035Z,14.24
2019-02-24T08:20:30.180Z,14.39
2019-02-24T08:21:40.677Z,14.5
2019-02-24T08:22:50.812Z,14.65
2019-02-24T08:24:00.944Z,14.99
2019-02-24T08:25:11.116Z,15.05
2019-02-24T08:26:21.276Z,15.27
2019-02-24T08:27:31.414Z,15.2
2019-02-24T08:28:41.556Z,15.33
2019-02-24T08:29:51.676Z,15.46
2019-02-24T08:31:01.871Z,15.54
2019-02-24T08:32:12.026Z,15.55
2019-02-24T08:33:22.206Z,15.68
2019-02-24T08:34:32.350Z,15.89
2019-02-24T08:35:42.509Z,16.01
2019-02-24T08:36:52.440Z,16.19
2019-02-24T08:38:02.585Z,16.43
2019-02-24T08:39:12.740Z,16.71
2019-02-24T08:40:22.877Z,16.87
2019-02-24T08:41:33.020Z,16.99
2019-02-24T08:42:43.201Z,16.87
2019-02-24T08:43:53.378Z,16.94
2019-02-24T08:45:03.523Z,16.96
2019-02-24T08:46:13.661Z,16.96
2019-02-24T08:47:23.567Z,17.06
2019-02-24T08:48:33.710Z,17.11
2019-02-24T08:49:43.880Z,17.11
2019-02-24T08:50:53.787Z,17.17
2019-02-24T08:52:03.946Z,17.31
2019-02-24T08:53:14.118Z,17.23
2019-02-24T08:54:24.269Z,17.2
2019-02-24T08:55:33.896Z,17.4
2019-02-24T08:56:44.040Z,17.47
2019-02-24T08:57:54.165Z,17.47
2019-02-24T08:59:03.997Z,17.42
2019-02-24T09:00:15.384Z,17.47
2019-02-24T09:01:26.544Z,17.61
2019-02-24T09:02:36.719Z,17.6
2019-02-24T09:03:46.579Z,17.62
2019-02-24T09:04:56.768Z,17.6
2019-02-24T09:06:06.966Z,17.68
2019-02-24T09:07:17.101Z,17.95
2019-02-24T09:08:27.244Z,18.02
2019-02-24T09:09:37.435Z,18
2019-02-24T09:10:47.573Z,18.02
2019-02-24T09:11:57.762Z,17.91
2019-02-24T09:13:07.940Z,17.92
2019-02-24T09:14:18.209Z,18
2019-02-24T09:15:29.403Z,17.86
2019-02-24T09:16:39.588Z,17.72
2019-02-24T09:17:49.849Z,17.62
2019-02-24T09:18:59.996Z,17.61
2019-02-24T09:20:10.347Z,17.75
2019-02-24T09:21:20.572Z,17.61
2019-02-24T09:22:30.786Z,17.54
2019-02-24T09:23:40.950Z,17.67
2019-02-24T09:24:51.139Z,17.62
2019-02-24T09:26:01.322Z,17.87
2019-02-24T09:27:11.256Z,18
2019-02-24T09:28:21.175Z,17.95
2019-02-24T09:29:31.500Z,17.82
2019-02-24T09:30:41.751Z,17.73
2019-02-24T09:31:51.942Z,17.86
2019-02-24T09:33:01.758Z,17.75
2019-02-24T09:34:11.937Z,17.79
2019-02-24T09:35:22.125Z,17.7
2019-02-24T09:36:32.252Z,17.89
2019-02-24T09:37:42.473Z,17.97
2019-02-24T09:38:52.687Z,17.89
2019-02-24T09:40:02.880Z,17.91
2019-02-24T09:41:13.051Z,17.79
2019-02-24T09:42:23.196Z,17.87
2019-02-24T09:43:33.411Z,18.07
2019-02-24T09:44:43.299Z,18.25
2019-02-24T09:45:53.513Z,18.31
2019-02-24T09:47:03.696Z,18.37
2019-02-24T09:48:13.843Z,18.71
2019-02-24T09:49:23.996Z,18.95
2019-02-24T09:50:34.214Z,19.16
2019-02-24T09:51:44.349Z,19.1
2019-02-24T09:52:54.519Z,18.8
2019-02-24T09:54:04.765Z,18.55
2019-02-24T09:55:14.933Z,18.28
2019-02-24T09:56:25.124Z,18.23
2019-02-24T09:57:37.000Z,18.41
2019-02-24T09:58:47.342Z,18.63
2019-02-24T09:59:58.145Z,18.69
2019-02-24T10:01:15.344Z,18.69
2019-02-24T10:02:25.553Z,18.57
2019-02-24T10:03:35.742Z,18.63
2019-02-24T10:04:45.917Z,18.5
2019-02-24T10:05:56.124Z,18.15
2019-02-24T10:07:06.309Z,18.37
2019-02-24T10:08:16.515Z,18.6
2019-02-24T10:09:26.719Z,19.02
2019-02-24T10:10:36.936Z,19.09
2019-02-24T10:11:47.134Z,19.12
2019-02-24T10:12:57.307Z,18.87
2019-02-24T10:14:07.503Z,18.88
2019-02-24T10:15:17.670Z,18.69
2019-02-24T10:16:27.821Z,18.86
2019-02-24T10:17:38.026Z,18.97
2019-02-24T10:18:48.216Z,19.12
2019-02-24T10:19:58.402Z,19.1
2019-02-24T10:21:08.355Z,19.12
2019-02-24T10:22:18.534Z,19.25
2019-02-24T10:23:29.648Z,19.31
2019-02-24T10:24:39.860Z,19.16
2019-02-24T10:25:50.051Z,19.18
2019-02-24T10:27:00.232Z,19.25
2019-02-24T10:28:10.373Z,19.28
2019-02-24T10:29:20.541Z,19.4
2019-02-24T10:30:30.717Z,19.7
2019-02-24T10:31:40.868Z,19.83
2019-02-24T10:32:51.073Z,19.88
2019-02-24T10:34:01.251Z,20.08
2019-02-24T10:35:13.119Z,20.43
2019-02-24T10:36:23.013Z,20.43
2019-02-24T10:37:34.679Z,20.26
2019-02-24T10:38:44.876Z,20
2019-02-24T10:39:55.049Z,19.73
2019-02-24T10:41:05.236Z,19.63
2019-02-24T10:42:15.211Z,19.58
2019-02-24T10:43:25.451Z,19.48
2019-02-24T10:44:35.639Z,19.39
2019-02-24T10:45:45.832Z,19.35
2019-02-24T10:46:56.017Z,19.4
2019-02-24T10:48:16.478Z,19.65
2019-02-24T10:49:26.652Z,19.92
2019-02-24T10:50:36.558Z,20.16
2019-02-24T10:51:46.779Z,20.45
2019-02-24T10:52:57.976Z,20.63
2019-02-24T10:54:08.176Z,20.67
2019-02-24T10:55:18.343Z,20.54
2019-02-24T10:56:28.523Z,20.51
2019-02-24T10:57:38.694Z,20.63
2019-02-24T10:58:48.853Z,20.82
2019-02-24T10:59:59.016Z,21
2019-02-24T11:01:09.260Z,20.9
2019-02-24T11:02:19.470Z,20.63
2019-02-24T11:03:29.621Z,20.51
2019-02-24T11:04:39.799Z,20.41
2019-02-24T11:05:49.985Z,20.53
2019-02-24T11:07:00.181Z,20.63
2019-02-24T11:08:10.326Z,20.76
2019-02-24T11:09:20.498Z,20.96
2019-02-24T11:10:30.672Z,21
2019-02-24T11:11:40.870Z,20.88
2019-02-24T11:12:51.047Z,20.81
2019-02-24T11:14:01.186Z,20.63
2019-02-24T11:15:11.368Z,20.6
2019-02-24T11:16:21.566Z,20.53
2019-02-24T11:17:31.715Z,20.41
2019-02-24T11:18:41.891Z,20.36
2019-02-24T11:19:53.028Z,20.43
2019-02-24T11:21:03.222Z,20.48
2019-02-24T11:22:13.406Z,20.72
2019-02-24T11:23:23.560Z,20.64
2019-02-24T11:24:33.452Z,20.86
2019-02-24T11:25:43.613Z,21.08
2019-02-24T11:26:53.808Z,21.46
2019-02-24T11:28:03.971Z,21.56
2019-02-24T11:29:14.130Z,21.33
2019-02-24T11:30:24.336Z,21.2
2019-02-24T11:31:42.994Z,21.33
2019-02-24T11:32:53.152Z,21.45
2019-02-24T11:34:03.508Z,21.54
2019-02-24T11:35:13.676Z,21.53
2019-02-24T11:36:23.837Z,21.4
2019-02-24T11:37:34.931Z,21.5
2019-02-24T11:38:45.119Z,21.6
2019-02-24T11:39:55.310Z,21.54
2019-02-24T11:41:05.677Z,21.57
2019-02-24T11:42:15.876Z,21.72
2019-02-24T11:43:26.081Z,21.6
2019-02-24T11:44:36.241Z,21.19
2019-02-24T11:45:46.422Z,21.09
2019-02-24T11:46:56.607Z,20.97
2019-02-24T11:48:06.746Z,20.83
2019-02-24T11:49:16.897Z,20.75
2019-02-24T11:50:27.086Z,20.83
2019-02-24T11:51:37.295Z,20.98
2019-02-24T11:52:47.490Z,21.22
2019-02-24T11:53:57.669Z,21.35
2019-02-24T11:55:07.871Z,21.6
2019-02-24T11:56:19.655Z,21.6
2019-02-24T11:57:29.966Z,21.57
2019-02-24T11:58:40.176Z,21.66
2019-02-24T11:59:50.380Z,21.73
2019-02-24T12:01:00.561Z,21.98
2019-02-24T12:02:10.722Z,22.15
2019-02-24T12:03:20.899Z,22.18
2019-02-24T12:04:31.290Z,22.33
2019-02-24T12:05:41.477Z,22.45
2019-02-24T12:06:51.662Z,22.52
2019-02-24T12:08:01.863Z,22.6
2019-02-24T12:09:12.049Z,22.48
2019-02-24T12:10:22.254Z,22.21
2019-02-24T12:11:32.446Z,22.01
2019-02-24T12:12:42.630Z,21.88
2019-02-24T12:13:52.794Z,21.98
2019-02-24T12:15:02.994Z,22.02
2019-02-24T12:16:13.186Z,21.93
2019-02-24T12:17:23.383Z,21.94
2019-02-24T12:18:33.573Z,22.03
2019-02-24T12:19:43.502Z,22.05
2019-02-24T12:20:53.657Z,22.08
2019-02-24T12:22:06.013Z,22.13
2019-02-24T12:23:16.193Z,22.16
2019-02-24T12:24:26.364Z,22.05
2019-02-24T12:25:36.553Z,22.08
2019-02-24T12:26:46.919Z,22.08
2019-02-24T12:27:58.317Z,22.08
2019-02-24T12:29:08.742Z,22.13
2019-02-24T12:30:18.959Z,22.03
2019-02-24T12:31:29.183Z,22.03
2019-02-24T12:32:40.767Z,21.96
2019-02-24T12:33:53.728Z,22.05
2019-02-24T12:35:04.468Z,21.97
2019-02-24T12:36:14.641Z,22.01
2019-02-24T12:37:24.861Z,22.08
2019-02-24T12:38:35.058Z,22.18
2019-02-24T12:39:45.330Z,22.13
2019-02-24T12:40:55.514Z,21.98
2019-02-24T12:42:05.702Z,21.96
2019-02-24T12:43:15.879Z,21.83
2019-02-24T12:45:42.425Z,21.91
2019-02-24T12:46:52.358Z,21.93
2019-02-24T12:48:02.873Z,21.93
2019-02-24T12:49:13.039Z,21.75
2019-02-24T12:50:23.229Z,21.6
2019-02-24T12:54:09.336Z,21.09
2019-02-24T12:55:19.536Z,20.88
2019-02-24T12:56:31.747Z,20.75
2019-02-24T12:57:41.948Z,20.61
2019-02-24T13:00:04.594Z,20.45
2019-02-24T13:01:14.788Z,20.46
2019-02-24T13:02:24.990Z,20.48
2019-02-24T13:03:35.189Z,20.46
2019-02-24T13:04:45.440Z,20.71
2019-02-24T13:05:55.394Z,20.67
2019-02-24T13:07:05.579Z,20.63
2019-02-24T13:08:15.787Z,20.48
2019-02-24T13:09:26.003Z,20.41
2019-02-24T13:10:36.152Z,20.3
2019-02-24T13:11:46.319Z,20.36
2019-02-24T13:12:56.492Z,20.35
2019-02-24T13:14:06.676Z,20.35
2019-02-24T13:15:16.880Z,20.31
2019-02-24T13:16:27.070Z,20.23
2019-02-24T13:17:37.233Z,20.11
2019-02-24T13:18:47.407Z,19.98
2019-02-24T13:19:57.616Z,19.8
2019-02-24T13:21:07.815Z,19.63
2019-02-24T13:22:18.030Z,19.58
2019-02-24T13:23:28.223Z,19.55
2019-02-24T13:24:40.634Z,19.45
2019-02-24T13:25:50.569Z,19.27
2019-02-24T13:27:00.788Z,19.13
2019-02-24T13:28:11.133Z,19.02
2019-02-24T13:29:21.330Z,18.87
2019-02-24T13:30:31.520Z,18.65
2019-02-24T13:31:41.805Z,18.57
2019-02-24T13:32:52.057Z,18.41
2019-02-24T13:34:02.425Z,18.49
2019-02-24T13:35:12.609Z,18.05
2019-02-24T13:36:22.808Z,17.98
2019-02-24T13:37:35.809Z,17.86
2019-02-24T13:38:48.458Z,17.73
2019-02-24T13:39:59.043Z,17.75
2019-02-24T13:41:10.088Z,17.61
2019-02-24T13:42:20.722Z,17.58
2019-02-24T13:43:30.879Z,17.43
2019-02-24T13:44:41.073Z,17.32
2019-02-24T13:45:51.281Z,17.21
2019-02-24T13:47:01.505Z,17.14
2019-02-24T13:48:11.725Z,17.05
2019-02-24T13:49:21.953Z,16.9
2019-02-24T13:50:32.144Z,16.87
2019-02-24T13:51:42.369Z,16.75
2019-02-24T13:52:52.595Z,16.59
2019-02-24T13:54:02.823Z,16.47
2019-02-24T13:55:12.760Z,16.34
2019-02-24T13:56:22.714Z,16.17
2019-02-24T13:57:32.916Z,16.09
2019-02-24T13:58:43.126Z,16.01
2019-02-24T13:59:53.364Z,15.94
2019-02-24T14:01:03.550Z,15.94
2019-02-24T14:02:13.748Z,15.8
2019-02-24T14:03:31.812Z,15.68
2019-02-24T14:04:42.038Z,15.7
2019-02-24T14:05:52.204Z,15.6
2019-02-24T14:07:02.400Z,15.53
2019-02-24T14:08:12.625Z,15.45
2019-02-24T14:09:22.853Z,15.38
2019-02-24T14:10:33.081Z,15.29
2019-02-24T14:11:43.334Z,15.27
2019-02-24T14:12:53.491Z,15.17
2019-02-24T14:14:04.429Z,15.15
2019-02-24T14:15:15.413Z,15.05
2019-02-24T14:16:25.370Z,15.14
2019-02-24T14:17:35.578Z,14.98
2019-02-24T14:18:49.962Z,14.96
2019-02-24T14:20:02.357Z,14.81
2019-02-24T14:21:12.574Z,14.8
2019-02-24T14:22:22.733Z,14.8
2019-02-24T14:23:32.910Z,14.75
2019-02-24T14:24:43.079Z,14.77
2019-02-24T14:25:53.269Z,14.72
2019-02-24T14:27:03.479Z,14.66
2019-02-24T14:28:13.668Z,14.67
2019-02-24T14:29:23.573Z,14.69
2019-02-24T14:30:33.766Z,14.62
2019-02-24T14:31:43.689Z,14.6
2019-02-24T14:32:55.832Z,14.56
2019-02-24T14:34:06.002Z,14.51
2019-02-24T14:35:16.195Z,14.54
2019-02-24T14:36:26.359Z,14.39
2019-02-24T14:37:36.528Z,14.39
2019-02-24T14:38:46.724Z,14.43
2019-02-24T14:39:56.975Z,14.4
2019-02-24T14:41:08.836Z,14.22
2019-02-24T14:42:19.209Z,14.11
2019-02-24T14:43:29.414Z,14.13
2019-02-24T14:44:39.601Z,14.09
2019-02-24T14:45:54.640Z,14.19
2019-02-24T14:47:04.831Z,14.07
2019-02-24T14:48:15.300Z,14.13
2019-02-24T14:49:25.488Z,14.13
2019-02-24T14:50:35.494Z,14.14
2019-02-24T14:51:45.759Z,13.99
2019-02-24T14:52:55.792Z,14
2019-02-24T14:54:06.051Z,13.86
2019-02-24T14:55:16.256Z,13.81
2019-02-24T14:56:26.150Z,13.7
2019-02-24T14:57:36.411Z,13.59
2019-02-24T14:58:46.667Z,13.54
2019-02-24T14:59:56.650Z,13.55
2019-02-24T15:01:06.854Z,13.54
2019-02-24T15:02:18.120Z,13.54
2019-02-24T15:03:28.320Z,13.61
2019-02-24T15:04:38.618Z,13.64
2019-02-24T15:05:48.822Z,13.59
2019-02-24T15:06:59.139Z,13.59
2019-02-24T15:08:09.178Z,13.63
2019-02-24T15:09:18.994Z,13.61
2019-02-24T15:10:28.899Z,13.63
2019-02-24T15:11:39.147Z,13.63
2019-02-24T15:12:49.061Z,13.64
2019-02-24T15:13:59.295Z,13.66
2019-02-24T15:15:09.525Z,13.59
2019-02-24T15:16:19.424Z,13.63
2019-02-24T15:17:29.859Z,13.58
2019-02-24T15:18:40.241Z,13.63
2019-02-24T15:19:51.542Z,13.66
2019-02-24T15:21:01.809Z,13.63
2019-02-24T15:22:12.072Z,13.56